Photometre #653[NE_1.6] Bayfordbury AOT

File : 20220925_653.hum

25/09/2022,06:48:24,TEMP=16.4,BA=5.60,STAT.h
25/09/2022,06:48:25,TEMP=16.4,BA=5.60,STAT.h
25/09/2022,06:52:36,TEMP=16.4,BA=5.64,STAT.h
25/09/2022,06:52:37,TEMP=16.4,BA=5.64,STAT.h
25/09/2022,06:57:32,TEMP=16.4,BA=5.64,STAT.h
25/09/2022,06:57:33,TEMP=16.4,BA=5.64,STAT.h
25/09/2022,07:03:24,TEMP=16.4,BA=5.68,STAT.h
25/09/2022,07:03:25,TEMP=16.4,BA=5.68,STAT.h
25/09/2022,07:10:30,TEMP=16.4,BA=5.68,STAT.h
25/09/2022,07:10:36,TEMP=16.4,BA=5.68,STAT.h
25/09/2022,07:19:18,TEMP=16.4,BA=5.68,STAT.h
25/09/2022,07:19:19,TEMP=16.4,BA=5.68,STAT.h
25/09/2022,07:30:51,TEMP=10.7,BA=5.68,STAT.B=9.5,ExtBa=13.86
25/09/2022,07:40:56,TEMP=11.2,BA=5.44,STAT.A=9.5,ExtBa=12.73
25/09/2022,07:43:03,TEMP=11.5,BA=5.44,STAT.A=9.0,ExtBa=12.76
25/09/2022,07:49:10,TEMP=11.5,BA=5.44,STAT.A=9.5,ExtBa=13.22
25/09/2022,07:57:02,TEMP=12.0,BA=5.44,STAT.A=9.5,ExtBa=13.76
25/09/2022,08:06:09,TEMP=12.5,BA=5.60,STAT.C=9.5,ExtBa=14.07
25/09/2022,08:20:58,TEMP=13.2,BA=5.48,STAT.A=9.5,ExtBa=12.94
25/09/2022,08:29:45,TEMP=13.5,BA=5.48,STAT.A=9.5,ExtBa=14.00
25/09/2022,08:45:31,TEMP=14.5,BA=5.68,STAT.A=10.0,ExtBa=14.27
25/09/2022,08:52:47,TEMP=15.0,BA=5.68,STAT.F,ExtBa=14.23
25/09/2022,09:07:45,TEMP=15.6,BA=5.48,STAT.D=10.0,ExtBa=13.54
25/09/2022,09:22:45,TEMP=16.1,BA=5.68,STAT.D=10.0,ExtBa=14.36
25/09/2022,09:37:45,TEMP=16.6,BA=5.68,STAT.D=10.0,ExtBa=14.48
25/09/2022,09:52:47,TEMP=17.4,BA=5.68,STAT.F,ExtBa=14.55
25/09/2022,10:07:45,TEMP=17.5,BA=5.52,STAT.D=10.0,ExtBa=13.71
25/09/2022,10:22:45,TEMP=17.7,BA=5.68,STAT.D=10.0,ExtBa=14.65
25/09/2022,10:37:45,TEMP=18.1,BA=5.68,STAT.D=10.0,ExtBa=14.68
25/09/2022,10:52:47,TEMP=18.2,BA=5.68,STAT.F,ExtBa=14.62
25/09/2022,11:07:45,TEMP=18.5,BA=5.48,STAT.D=10.0,ExtBa=13.36
25/09/2022,11:22:45,TEMP=18.7,BA=5.68,STAT.D=10.0,ExtBa=14.38
25/09/2022,11:37:45,TEMP=17.4,BA=5.68,STAT.D=10.5,ExtBa=14.74
25/09/2022,11:52:47,TEMP=17.6,BA=5.68,STAT.F,ExtBa=14.76
25/09/2022,12:08:35,TEMP=18.6,BA=5.48,STAT.D=10.0,ExtBa=13.30
25/09/2022,12:22:45,TEMP=18.5,BA=5.68,STAT.D=10.5,ExtBa=14.45
25/09/2022,12:37:46,TEMP=18.7,BA=5.68,STAT.D=10.5,ExtBa=14.39
25/09/2022,12:52:47,TEMP=18.5,BA=5.68,STAT.F,ExtBa=14.34
25/09/2022,13:07:45,TEMP=18.7,BA=5.48,STAT.D=10.0,ExtBa=13.20
25/09/2022,13:22:45,TEMP=18.5,BA=5.68,STAT.D=10.5,ExtBa=14.13
25/09/2022,13:37:45,TEMP=18.1,BA=5.68,STAT.D=10.5,ExtBa=13.96
25/09/2022,13:52:47,TEMP=17.6,BA=5.68,STAT.F,ExtBa=13.85
25/09/2022,14:07:45,TEMP=16.8,BA=5.68,STAT.D=10.5,ExtBa=13.59
25/09/2022,14:22:45,TEMP=16.4,BA=5.68,STAT.D=10.5,ExtBa=13.38
25/09/2022,14:37:45,TEMP=16.0,BA=5.64,STAT.D=10.5,ExtBa=13.17
25/09/2022,14:52:47,TEMP=15.9,BA=5.68,STAT.F,ExtBa=13.04
25/09/2022,15:00:03,TEMP=15.9,BA=5.68,STAT.A=10.0,ExtBa=12.95
25/09/2022,15:15:49,TEMP=16.0,BA=5.68,STAT.A=10.0,ExtBa=13.07
25/09/2022,15:28:39,TEMP=16.2,BA=5.68,STAT.A=10.0,ExtBa=13.36
25/09/2022,15:39:24,TEMP=16.7,BA=5.48,STAT.C=10.0,ExtBa=13.70
25/09/2022,15:55:07,TEMP=16.5,BA=5.44,STAT.A=10.0,ExtBa=12.84
25/09/2022,15:57:10,TEMP=16.7,BA=5.44,STAT.A=10.0,ExtBa=12.83
25/09/2022,16:03:14,TEMP=16.2,BA=5.64,STAT.A=10.0,ExtBa=12.90
25/09/2022,16:09:17,TEMP=16.0,BA=5.64,STAT.A=10.0,ExtBa=12.88
25/09/2022,16:14:41,TEMP=15.9,BA=5.44,STAT.B=10.0,ExtBa=12.86
25/09/2022,16:25:52,TEMP=15.9,BA=5.44,STAT.A=10.0,ExtBa=12.80
25/09/2022,16:34:40,TEMP=16.6,BA=5.68,STAT.A=10.0,ExtBa=13.04
25/09/2022,16:41:46,TEMP=17.0,BA=5.68,STAT.A=10.0,ExtBa=12.88
25/09/2022,16:47:38,TEMP=16.6,BA=5.68,STAT.A=10.0,ExtBa=12.78
25/09/2022,16:52:34,TEMP=16.1,BA=5.44,STAT.A=10.0,ExtBa=12.76
25/09/2022,16:56:46,TEMP=15.6,BA=5.44,STAT.A=10.0,ExtBa=12.75